Time;durP1;ratioP1;P1;durP2;ratioP2;P2;SDS_P1;SDS_P2;PMS_P1;PMS_P2;Temp;Humidity;BMP_temperature;BMP_pressure;BME280_temperature;BME280_humidity;BME280_pressure;Samples;Min_cycle;Max_cycle;Signal;HPM_P1;HPM_P2
2023/12/20 00:01:30;;;;;;;428.23;162.27;;;;;;;;;;4988953;28;20587;-51
2023/12/20 00:03:56;;;;;;;414.67;155.20;;;;;;;;;;4990142;28;20217;-51
2023/12/20 00:06:22;;;;;;;427.00;158.70;;;;;;;;;;4987194;28;20728;-51
2023/12/20 00:08:48;;;;;;;465.30;174.87;;;;;;;;;;4991719;28;20700;-51
2023/12/20 00:11:14;;;;;;;404.30;150.50;;;;;;;;;;4987632;28;20259;-52
2023/12/20 00:13:39;;;;;;;460.87;171.53;;;;;;;;;;4988991;28;20296;-52
2023/12/20 00:16:06;;;;;;;417.87;154.37;;;;;;;;;;4992205;28;20209;-51
2023/12/20 00:18:32;;;;;;;453.57;174.00;;;;;;;;;;4996272;28;20186;-52
2023/12/20 00:20:57;;;;;;;442.27;163.57;;;;;;;;;;4993381;28;20247;-52
2023/12/20 00:23:24;;;;;;;432.70;159.07;;;;;;;;;;4990659;28;20449;-51
2023/12/20 00:25:50;;;;;;;433.07;162.33;;;;;;;;;;4988431;28;20459;-51
2023/12/20 00:28:16;;;;;;;396.23;147.20;;;;;;;;;;4989243;28;20228;-52
2023/12/20 00:30:42;;;;;;;436.73;163.70;;;;;;;;;;4982152;28;20677;-52
2023/12/20 00:33:08;;;;;;;483.00;183.20;;;;;;;;;;4993049;28;20185;-52
2023/12/20 00:35:34;;;;;;;421.50;155.33;;;;;;;;;;4993584;28;22210;-51
2023/12/20 00:38:00;;;;;;;420.37;156.27;;;;;;;;;;4997017;28;20615;-51
2023/12/20 00:40:26;;;;;;;411.50;154.70;;;;;;;;;;4988094;28;20726;-51
2023/12/20 00:42:52;;;;;;;418.27;155.30;;;;;;;;;;4990647;28;20219;-51
2023/12/20 00:45:18;;;;;;;464.33;176.27;;;;;;;;;;4991287;28;20254;-51
2023/12/20 00:47:44;;;;;;;454.43;170.83;;;;;;;;;;4989715;28;20208;-51
2023/12/20 00:50:10;;;;;;;493.47;188.63;;;;;;;;;;4985797;28;20243;-52
2023/12/20 00:52:36;;;;;;;431.03;166.20;;;;;;;;;;4984419;28;20230;-51
2023/12/20 00:55:01;;;;;;;412.43;153.83;;;;;;;;;;4991534;28;20220;-51
2023/12/20 00:57:27;;;;;;;424.80;161.13;;;;;;;;;;4988257;28;20212;-52
2023/12/20 00:59:53;;;;;;;459.30;174.67;;;;;;;;;;4984347;28;20213;-52
2023/12/20 01:02:19;;;;;;;429.20;159.87;;;;;;;;;;4988104;28;20251;-52
2023/12/20 01:04:45;;;;;;;448.30;166.57;;;;;;;;;;4993734;28;20216;-51
2023/12/20 01:07:11;;;;;;;427.37;159.00;;;;;;;;;;4990355;28;20702;-51
2023/12/20 01:09:37;;;;;;;441.30;164.53;;;;;;;;;;4989480;28;20198;-52
2023/12/20 01:12:03;;;;;;;432.83;158.80;;;;;;;;;;4991306;28;20291;-52
2023/12/20 01:14:29;;;;;;;467.80;180.47;;;;;;;;;;4987809;28;20619;-51
2023/12/20 01:16:55;;;;;;;444.13;164.23;;;;;;;;;;4988104;28;20216;-52
2023/12/20 01:19:21;;;;;;;447.17;164.87;;;;;;;;;;4993747;28;20260;-51
2023/12/20 01:21:47;;;;;;;438.90;160.40;;;;;;;;;;4991221;28;20521;-52
2023/12/20 01:24:13;;;;;;;409.13;152.13;;;;;;;;;;4990771;28;20896;-52
2023/12/20 01:26:39;;;;;;;428.03;156.20;;;;;;;;;;4989777;28;20335;-51
2023/12/20 01:29:05;;;;;;;437.97;166.33;;;;;;;;;;4986611;28;20213;-51
2023/12/20 01:31:31;;;;;;;441.77;165.97;;;;;;;;;;4988297;28;20235;-52
2023/12/20 01:33:57;;;;;;;434.37;159.97;;;;;;;;;;4994690;28;20520;-52
2023/12/20 01:36:23;;;;;;;437.90;165.80;;;;;;;;;;4987055;28;20270;-51
2023/12/20 01:38:49;;;;;;;420.00;155.27;;;;;;;;;;4989578;28;20602;-51
2023/12/20 01:41:15;;;;;;;414.03;153.73;;;;;;;;;;4987647;28;20220;-51
2023/12/20 01:43:41;;;;;;;414.97;156.10;;;;;;;;;;4989748;28;20228;-52
2023/12/20 01:46:07;;;;;;;442.90;166.13;;;;;;;;;;4988025;28;20213;-52
2023/12/20 01:48:33;;;;;;;425.63;160.23;;;;;;;;;;4989422;28;20181;-51
2023/12/20 01:51:02;;;;;;;436.67;165.10;;;;;;;;;;4987082;28;20209;-52
2023/12/20 01:53:28;;;;;;;412.73;156.50;;;;;;;;;;4988730;28;20213;-51
2023/12/20 01:55:55;;;;;;;435.27;162.97;;;;;;;;;;4987644;28;20212;-51
2023/12/20 01:58:22;;;;;;;444.20;170.73;;;;;;;;;;4985342;28;20731;-52
2023/12/20 02:00:48;;;;;;;445.23;167.73;;;;;;;;;;4987821;28;20255;-51
2023/12/20 02:03:14;;;;;;;425.93;160.73;;;;;;;;;;4990647;28;20189;-51
2023/12/20 02:05:40;;;;;;;425.50;159.07;;;;;;;;;;4991310;28;20223;-52
2023/12/20 02:08:07;;;;;;;417.97;156.87;;;;;;;;;;4989284;28;20244;-52
2023/12/20 02:10:33;;;;;;;453.77;171.07;;;;;;;;;;4987950;28;20233;-52
2023/12/20 02:12:59;;;;;;;441.73;164.67;;;;;;;;;;4985677;28;20905;-51
2023/12/20 02:15:25;;;;;;;443.93;168.30;;;;;;;;;;4991619;28;20179;-51
2023/12/20 02:17:51;;;;;;;421.00;159.27;;;;;;;;;;4991478;28;20249;-51
2023/12/20 02:20:17;;;;;;;453.87;169.97;;;;;;;;;;4987770;28;20259;-51
2023/12/20 02:25:46;;;;;;;424.73;158.13;;;;;;;;;;4983317;28;20323;-51
2023/12/20 02:28:12;;;;;;;488.90;186.97;;;;;;;;;;4982590;28;20614;-51
2023/12/20 02:30:38;;;;;;;425.90;159.47;;;;;;;;;;4983993;28;20319;-51
2023/12/20 02:33:08;;;;;;;426.43;156.40;;;;;;;;;;4991012;28;20200;-51
2023/12/20 02:35:34;;;;;;;464.40;176.00;;;;;;;;;;4987586;28;20213;-51
2023/12/20 02:38:00;;;;;;;447.20;165.80;;;;;;;;;;4989576;28;20884;-52
2023/12/20 02:40:26;;;;;;;484.33;181.93;;;;;;;;;;4982325;28;20367;-52
2023/12/20 02:42:52;;;;;;;446.77;166.17;;;;;;;;;;4988362;28;20219;-52
2023/12/20 02:45:18;;;;;;;447.73;167.17;;;;;;;;;;4991081;28;20176;-51
2023/12/20 02:47:44;;;;;;;451.93;176.23;;;;;;;;;;4988516;28;20213;-52
2023/12/20 02:50:10;;;;;;;467.80;180.10;;;;;;;;;;4984165;28;20938;-52
2023/12/20 02:52:36;;;;;;;459.37;176.43;;;;;;;;;;4992940;28;20711;-52
2023/12/20 02:55:02;;;;;;;424.60;159.77;;;;;;;;;;4989022;28;20518;-51
2023/12/20 02:57:28;;;;;;;463.07;176.37;;;;;;;;;;4985873;28;20192;-51
2023/12/20 02:59:54;;;;;;;432.93;159.67;;;;;;;;;;4991438;28;20304;-51
2023/12/20 03:02:20;;;;;;;423.70;156.57;;;;;;;;;;4986996;28;20640;-51
2023/12/20 03:04:46;;;;;;;431.47;163.50;;;;;;;;;;4985350;28;24696;-51
2023/12/20 03:07:12;;;;;;;462.60;173.83;;;;;;;;;;4991963;28;20618;-51
2023/12/20 03:09:38;;;;;;;434.30;166.40;;;;;;;;;;4982276;28;20775;-51
2023/12/20 03:12:04;;;;;;;413.70;156.57;;;;;;;;;;4991138;28;20309;-52
2023/12/20 03:14:30;;;;;;;491.80;182.73;;;;;;;;;;4984447;28;20231;-51
2023/12/20 03:16:56;;;;;;;436.43;161.87;;;;;;;;;;4990798;28;20221;-50
2023/12/20 03:19:22;;;;;;;434.77;161.20;;;;;;;;;;4984527;28;20252;-51
2023/12/20 03:21:48;;;;;;;412.17;149.53;;;;;;;;;;4989093;28;20612;-53
2023/12/20 03:24:14;;;;;;;474.83;181.10;;;;;;;;;;4985845;28;20192;-51
2023/12/20 03:26:40;;;;;;;449.23;170.57;;;;;;;;;;4988278;28;20252;-51
2023/12/20 03:29:06;;;;;;;451.97;168.57;;;;;;;;;;4987407;28;20220;-51
2023/12/20 03:31:32;;;;;;;419.40;156.80;;;;;;;;;;4989353;28;20374;-52
2023/12/20 03:33:58;;;;;;;440.90;162.57;;;;;;;;;;4990496;28;20762;-52
2023/12/20 03:36:23;;;;;;;437.80;164.27;;;;;;;;;;4984108;28;20180;-52
2023/12/20 03:38:49;;;;;;;449.47;170.57;;;;;;;;;;4993078;28;20223;-51
2023/12/20 03:41:15;;;;;;;451.13;168.17;;;;;;;;;;4978778;28;20224;-51
2023/12/20 03:43:41;;;;;;;467.57;177.50;;;;;;;;;;4988155;28;20220;-52
2023/12/20 03:46:09;;;;;;;403.57;150.77;;;;;;;;;;4985732;28;20330;-52
2023/12/20 03:48:35;;;;;;;410.20;155.93;;;;;;;;;;4990701;28;20184;-52
2023/12/20 03:51:01;;;;;;;418.17;159.27;;;;;;;;;;4992241;28;20259;-50
2023/12/20 03:53:27;;;;;;;415.87;154.53;;;;;;;;;;4992264;28;20220;-51
2023/12/20 03:55:53;;;;;;;439.07;165.20;;;;;;;;;;4990181;28;20235;-51
2023/12/20 03:58:19;;;;;;;425.30;155.67;;;;;;;;;;4989689;28;20217;-51
2023/12/20 04:00:45;;;;;;;459.00;172.80;;;;;;;;;;4984409;28;20769;-51
2023/12/20 04:03:13;;;;;;;452.77;167.53;;;;;;;;;;4986736;28;20568;-51
2023/12/20 04:05:39;;;;;;;443.33;166.90;;;;;;;;;;4987308;28;20652;-51
2023/12/20 04:08:06;;;;;;;435.13;166.47;;;;;;;;;;4987929;28;20717;-50
2023/12/20 04:10:32;;;;;;;458.33;177.00;;;;;;;;;;4975638;28;20315;-50
2023/12/20 04:12:58;;;;;;;393.97;145.77;;;;;;;;;;4991627;28;20236;-52
2023/12/20 04:15:23;;;;;;;447.00;168.13;;;;;;;;;;4989811;28;20186;-52
2023/12/20 04:17:49;;;;;;;435.80;159.87;;;;;;;;;;4986198;28;20185;-53
2023/12/20 04:20:15;;;;;;;440.50;163.10;;;;;;;;;;4998443;28;20220;-52
2023/12/20 04:22:42;;;;;;;392.07;143.77;;;;;;;;;;5001245;28;20297;-51
2023/12/20 04:25:08;;;;;;;400.70;147.33;;;;;;;;;;5009135;28;20249;-49
2023/12/20 04:27:34;;;;;;;365.23;136.93;;;;;;;;;;5009249;28;20173;-51
2023/12/20 04:30:00;;;;;;;391.37;142.13;;;;;;;;;;5009243;28;20205;-51
2023/12/20 04:32:26;;;;;;;382.27;141.10;;;;;;;;;;5009535;28;20552;-51
2023/12/20 04:34:52;;;;;;;401.87;146.90;;;;;;;;;;5008708;28;20217;-50
2023/12/20 04:37:18;;;;;;;394.80;146.57;;;;;;;;;;5008775;28;20282;-50
2023/12/20 04:39:44;;;;;;;404.23;148.27;;;;;;;;;;5008461;28;20238;-50
2023/12/20 04:42:10;;;;;;;385.47;143.20;;;;;;;;;;5008958;28;20173;-50
2023/12/20 04:44:36;;;;;;;397.17;145.33;;;;;;;;;;5008607;28;20236;-50
2023/12/20 04:47:02;;;;;;;403.70;146.83;;;;;;;;;;5008880;28;20219;-50
2023/12/20 04:49:28;;;;;;;379.77;137.07;;;;;;;;;;5008498;28;20208;-50
2023/12/20 04:51:55;;;;;;;405.13;148.03;;;;;;;;;;5008293;28;20220;-50
2023/12/20 04:54:21;;;;;;;408.97;150.67;;;;;;;;;;5008693;28;20219;-49
2023/12/20 04:56:47;;;;;;;408.97;149.70;;;;;;;;;;4988788;28;20296;-50
2023/12/20 04:59:13;;;;;;;399.77;147.67;;;;;;;;;;4997536;28;20259;-50
2023/12/20 05:01:39;;;;;;;396.87;148.37;;;;;;;;;;5008535;28;20263;-50
2023/12/20 05:04:05;;;;;;;395.33;147.37;;;;;;;;;;5008276;28;20220;-50
2023/12/20 05:06:31;;;;;;;406.90;152.50;;;;;;;;;;5008535;28;20588;-50
2023/12/20 05:08:57;;;;;;;396.53;147.70;;;;;;;;;;5008325;28;20571;-49
2023/12/20 05:11:23;;;;;;;401.53;146.40;;;;;;;;;;5007777;28;20221;-50
2023/12/20 05:13:49;;;;;;;411.93;150.67;;;;;;;;;;5007958;28;20294;-50
2023/12/20 05:16:17;;;;;;;408.07;148.50;;;;;;;;;;5007785;28;20225;-50
2023/12/20 05:18:43;;;;;;;423.67;157.33;;;;;;;;;;5008034;28;20630;-49
2023/12/20 05:21:09;;;;;;;400.70;143.83;;;;;;;;;;5008550;28;20288;-50
2023/12/20 05:23:35;;;;;;;397.47;142.67;;;;;;;;;;5007879;28;20233;-49
2023/12/20 05:26:01;;;;;;;389.20;142.07;;;;;;;;;;5007940;28;20224;-49
2023/12/20 05:28:27;;;;;;;374.33;136.77;;;;;;;;;;5007637;28;20213;-50
2023/12/20 05:30:53;;;;;;;395.43;145.40;;;;;;;;;;5007451;28;20237;-49
2023/12/20 05:33:19;;;;;;;400.10;146.03;;;;;;;;;;5008237;28;20181;-50
2023/12/20 05:35:45;;;;;;;401.60;146.57;;;;;;;;;;5007671;28;20938;-50
2023/12/20 05:38:11;;;;;;;398.43;145.60;;;;;;;;;;5007423;28;20244;-51
2023/12/20 05:40:37;;;;;;;374.37;138.37;;;;;;;;;;5007373;28;20246;-49
2023/12/20 05:43:03;;;;;;;390.85;144.85;;;;;;;;;;5007730;28;20643;-50
2023/12/20 05:45:29;;;;;;;385.57;144.57;;;;;;;;;;5007399;28;20185;-50
2023/12/20 05:47:55;;;;;;;397.30;146.37;;;;;;;;;;5008019;28;20704;-50
2023/12/20 05:50:21;;;;;;;395.47;145.03;;;;;;;;;;5007174;28;20307;-50
2023/12/20 05:52:47;;;;;;;404.80;148.73;;;;;;;;;;5007346;28;20654;-50
2023/12/20 05:55:13;;;;;;;408.83;149.67;;;;;;;;;;5007255;28;20242;-51
2023/12/20 05:57:39;;;;;;;386.77;140.83;;;;;;;;;;5007158;28;20517;-50
2023/12/20 06:00:06;;;;;;;387.43;140.17;;;;;;;;;;5007752;28;20288;-50
2023/12/20 06:02:32;;;;;;;393.30;143.90;;;;;;;;;;5007678;28;20274;-50
2023/12/20 06:04:58;;;;;;;394.20;143.43;;;;;;;;;;5007603;28;20233;-50
2023/12/20 06:07:24;;;;;;;392.43;146.50;;;;;;;;;;5008281;28;20282;-50
2023/12/20 06:09:50;;;;;;;405.00;147.67;;;;;;;;;;5006001;28;20662;-50
2023/12/20 06:12:16;;;;;;;401.63;147.83;;;;;;;;;;5007611;28;20668;-50
2023/12/20 06:14:42;;;;;;;389.50;145.13;;;;;;;;;;5007291;28;20220;-50
2023/12/20 06:17:08;;;;;;;397.77;146.17;;;;;;;;;;5006955;28;20706;-50
2023/12/20 06:19:34;;;;;;;370.93;138.40;;;;;;;;;;5006920;28;20655;-50
2023/12/20 06:22:00;;;;;;;393.17;145.23;;;;;;;;;;5006860;28;20220;-50
2023/12/20 06:24:27;;;;;;;381.83;140.80;;;;;;;;;;5007101;28;20169;-50
2023/12/20 06:26:55;;;;;;;408.20;153.33;;;;;;;;;;5007170;28;20254;-49
2023/12/20 06:29:20;;;;;;;399.00;147.50;;;;;;;;;;5006602;28;20282;-50
2023/12/20 06:31:46;;;;;;;387.90;142.80;;;;;;;;;;5006933;28;20229;-49
2023/12/20 06:34:12;;;;;;;390.23;148.07;;;;;;;;;;5007018;28;20225;-49
2023/12/20 06:36:38;;;;;;;372.13;139.73;;;;;;;;;;5007074;28;20256;-50
2023/12/20 06:39:04;;;;;;;386.97;145.63;;;;;;;;;;5007335;28;20557;-50
2023/12/20 06:41:30;;;;;;;395.00;147.07;;;;;;;;;;5005225;28;20225;-50
2023/12/20 06:43:56;;;;;;;395.20;144.50;;;;;;;;;;5006762;28;20228;-51
2023/12/20 06:46:22;;;;;;;392.60;144.03;;;;;;;;;;5006656;28;20624;-50
2023/12/20 06:48:48;;;;;;;388.80;145.10;;;;;;;;;;5006703;28;20242;-50
2023/12/20 06:51:15;;;;;;;383.33;141.17;;;;;;;;;;5005462;28;20205;-49
2023/12/20 06:53:42;;;;;;;379.43;138.93;;;;;;;;;;5006165;28;20213;-50
2023/12/20 06:56:08;;;;;;;361.77;133.13;;;;;;;;;;5006750;28;20225;-49
2023/12/20 06:58:35;;;;;;;387.13;144.87;;;;;;;;;;5006875;28;20224;-50
2023/12/20 07:01:01;;;;;;;377.67;140.23;;;;;;;;;;5007047;28;20244;-50
2023/12/20 07:03:27;;;;;;;394.17;144.53;;;;;;;;;;5006583;28;20227;-50
2023/12/20 07:05:53;;;;;;;393.03;142.50;;;;;;;;;;5007088;28;20181;-50
2023/12/20 07:08:19;;;;;;;391.07;143.03;;;;;;;;;;5004975;28;20232;-50
2023/12/20 07:10:45;;;;;;;404.27;151.33;;;;;;;;;;5005858;28;20224;-50
2023/12/20 07:13:12;;;;;;;392.90;142.30;;;;;;;;;;5006559;28;20205;-50
2023/12/20 07:15:38;;;;;;;379.93;141.73;;;;;;;;;;5006523;28;20169;-48
2023/12/20 07:18:05;;;;;;;386.37;140.17;;;;;;;;;;5006874;28;20264;-49
2023/12/20 07:20:31;;;;;;;389.83;143.57;;;;;;;;;;5006938;28;20522;-49
2023/12/20 07:22:57;;;;;;;387.63;138.27;;;;;;;;;;5009604;28;20272;-50
2023/12/20 07:25:23;;;;;;;394.57;141.20;;;;;;;;;;5009997;28;20679;-50
2023/12/20 07:27:49;;;;;;;395.73;145.93;;;;;;;;;;5009436;28;20643;-50
2023/12/20 07:30:15;;;;;;;378.13;138.50;;;;;;;;;;5009299;28;20251;-50
2023/12/20 07:32:41;;;;;;;374.27;137.00;;;;;;;;;;5010084;28;20224;-50
2023/12/20 07:35:07;;;;;;;380.07;137.67;;;;;;;;;;5009742;28;20603;-49
2023/12/20 07:37:33;;;;;;;364.60;135.37;;;;;;;;;;5010181;28;20224;-50
2023/12/20 07:39:59;;;;;;;374.30;138.90;;;;;;;;;;5009484;28;20216;-49
2023/12/20 07:42:25;;;;;;;377.97;144.10;;;;;;;;;;5003980;28;20228;-50
2023/12/20 07:44:51;;;;;;;368.27;139.97;;;;;;;;;;5004928;28;20189;-51
2023/12/20 07:47:19;;;;;;;369.97;141.50;;;;;;;;;;5003261;28;20279;-50
2023/12/20 07:49:45;;;;;;;367.67;142.27;;;;;;;;;;5005400;28;20220;-51
2023/12/20 07:52:11;;;;;;;376.63;142.63;;;;;;;;;;5003862;28;20253;-51
2023/12/20 07:54:37;;;;;;;395.87;154.67;;;;;;;;;;5002218;28;20745;-51
2023/12/20 07:57:03;;;;;;;369.60;139.63;;;;;;;;;;5006185;28;20642;-50
2023/12/20 07:59:29;;;;;;;370.33;137.00;;;;;;;;;;5005064;28;20912;-51
2023/12/20 08:01:55;;;;;;;377.67;143.27;;;;;;;;;;5007475;28;20235;-50
2023/12/20 08:04:21;;;;;;;392.73;145.23;;;;;;;;;;5009194;28;20525;-50
2023/12/20 08:06:47;;;;;;;412.60;148.77;;;;;;;;;;5009567;28;21347;-49
2023/12/20 08:09:13;;;;;;;386.73;144.13;;;;;;;;;;5009504;28;20220;-50
2023/12/20 08:11:39;;;;;;;382.03;141.77;;;;;;;;;;5009375;28;20290;-50
2023/12/20 08:14:05;;;;;;;374.57;137.93;;;;;;;;;;5009457;28;20671;-49
2023/12/20 08:16:31;;;;;;;387.27;140.27;;;;;;;;;;5010113;28;20247;-50
2023/12/20 08:18:57;;;;;;;401.37;146.50;;;;;;;;;;5008964;28;20248;-49
2023/12/20 08:21:23;;;;;;;397.57;146.50;;;;;;;;;;5010007;28;20243;-50
2023/12/20 08:23:49;;;;;;;379.77;136.77;;;;;;;;;;5012017;28;20200;-51
2023/12/20 08:26:20;;;;;;;393.83;142.17;;;;;;;;;;5010207;28;20220;-50
2023/12/20 08:28:46;;;;;;;386.27;138.97;;;;;;;;;;5010325;28;20236;-51
2023/12/20 08:31:18;;;;;;;396.23;143.57;;;;;;;;;;5009543;28;20248;-50
2023/12/20 08:33:48;;;;;;;385.97;140.67;;;;;;;;;;5010190;28;20221;-50
2023/12/20 08:36:14;;;;;;;378.40;137.90;;;;;;;;;;5010137;28;20165;-50
2023/12/20 08:38:40;;;;;;;385.27;141.87;;;;;;;;;;5009801;28;20205;-50
2023/12/20 08:41:07;;;;;;;397.60;147.47;;;;;;;;;;5009482;28;20228;-50
2023/12/20 08:43:33;;;;;;;401.33;144.37;;;;;;;;;;5009928;28;20225;-50
2023/12/20 08:45:59;;;;;;;380.87;138.67;;;;;;;;;;5009352;28;20725;-50
2023/12/20 08:48:25;;;;;;;412.13;150.37;;;;;;;;;;5009316;28;20647;-51
2023/12/20 08:50:52;;;;;;;386.00;141.23;;;;;;;;;;5009758;28;20296;-50
2023/12/20 08:53:18;;;;;;;394.07;145.37;;;;;;;;;;5009380;28;20248;-50
2023/12/20 08:55:44;;;;;;;380.47;139.67;;;;;;;;;;5009110;28;20303;-51
2023/12/20 08:58:10;;;;;;;406.00;145.23;;;;;;;;;;5008904;28;20308;-50
2023/12/20 09:00:36;;;;;;;388.00;140.93;;;;;;;;;;5009071;28;20312;-50
2023/12/20 09:03:02;;;;;;;386.83;138.53;;;;;;;;;;5009552;28;20822;-50
2023/12/20 09:05:28;;;;;;;390.53;140.57;;;;;;;;;;5009337;28;20737;-50
2023/12/20 09:07:54;;;;;;;392.03;144.63;;;;;;;;;;5009189;28;20224;-48
2023/12/20 09:10:22;;;;;;;409.73;146.73;;;;;;;;;;5018325;28;20771;-49
2023/12/20 09:12:51;;;;;;;387.77;140.27;;;;;;;;;;5009189;28;20236;-49
2023/12/20 09:15:17;;;;;;;398.57;141.23;;;;;;;;;;5010061;28;20184;-49
2023/12/20 09:17:43;;;;;;;391.07;139.30;;;;;;;;;;5009440;28;20270;-49
2023/12/20 09:20:10;;;;;;;371.63;132.60;;;;;;;;;;5008943;28;20231;-50
2023/12/20 09:22:38;;;;;;;391.93;139.77;;;;;;;;;;5009284;28;20279;-49
2023/12/20 09:25:04;;;;;;;391.97;141.77;;;;;;;;;;5009047;28;20225;-50
2023/12/20 09:27:30;;;;;;;390.53;142.20;;;;;;;;;;5009302;28;20220;-49
2023/12/20 09:29:56;;;;;;;402.93;146.87;;;;;;;;;;5009056;28;20208;-49
2023/12/20 09:32:21;;;;;;;404.07;148.80;;;;;;;;;;5009101;28;20228;-49
2023/12/20 09:34:48;;;;;;;393.33;141.30;;;;;;;;;;5009281;28;20252;-50
2023/12/20 09:37:14;;;;;;;390.97;140.50;;;;;;;;;;5009096;28;20216;-51
2023/12/20 09:39:40;;;;;;;405.47;146.73;;;;;;;;;;5008640;28;20212;-50
2023/12/20 09:42:06;;;;;;;388.10;142.17;;;;;;;;;;5009384;28;20208;-51
2023/12/20 09:44:34;;;;;;;393.73;143.50;;;;;;;;;;5008662;28;20224;-50
2023/12/20 09:47:02;;;;;;;385.73;142.87;;;;;;;;;;5008845;28;20228;-49
2023/12/20 09:49:28;;;;;;;385.27;143.07;;;;;;;;;;5008726;28;20231;-49
2023/12/20 09:51:55;;;;;;;382.77;140.17;;;;;;;;;;5008373;28;20268;-49
2023/12/20 09:54:22;;;;;;;397.30;142.70;;;;;;;;;;5009221;28;20330;-49
2023/12/20 09:56:48;;;;;;;389.43;138.47;;;;;;;;;;5008881;28;20220;-49
2023/12/20 09:59:14;;;;;;;399.20;144.77;;;;;;;;;;5008728;28;20703;-49
2023/12/20 10:01:41;;;;;;;403.83;145.63;;;;;;;;;;5008374;28;20591;-49
2023/12/20 10:04:08;;;;;;;395.07;143.20;;;;;;;;;;5008611;28;20650;-50
2023/12/20 10:06:35;;;;;;;385.90;143.13;;;;;;;;;;5008384;28;20607;-48
2023/12/20 10:09:02;;;;;;;393.27;144.67;;;;;;;;;;5008922;28;20193;-49
2023/12/20 10:11:29;;;;;;;393.23;140.17;;;;;;;;;;5008913;28;20231;-49
2023/12/20 10:14:01;;;;;;;416.73;153.60;;;;;;;;;;5007864;28;20209;-49
2023/12/20 10:16:27;;;;;;;395.47;143.73;;;;;;;;;;5007114;28;20356;-49
2023/12/20 10:18:53;;;;;;;386.53;139.63;;;;;;;;;;5008340;28;20580;-49
2023/12/20 10:21:19;;;;;;;393.63;140.67;;;;;;;;;;5008903;28;20205;-49
2023/12/20 10:23:46;;;;;;;419.83;175.50;;;;;;;;;;5026117;23;20240;-50
2023/12/20 10:26:20;;;;;;;464.43;195.03;;;;;;;;;;5010014;28;20462;-50
2023/12/20 10:28:46;;;;;;;431.27;176.30;;;;;;;;;;5011201;28;20220;-49
2023/12/20 10:31:26;;;;;;;463.80;190.07;;;;;;;;;;5006667;28;20215;-49
2023/12/20 10:33:52;;;;;;;493.23;204.00;;;;;;;;;;5022417;28;20301;-49
2023/12/20 10:36:18;;;;;;;489.40;202.80;;;;;;;;;;5008045;28;20594;-49
2023/12/20 10:38:44;;;;;;;474.23;195.73;;;;;;;;;;5014377;28;20301;-49
2023/12/20 10:41:11;;;;;;;412.00;165.70;;;;;;;;;;5018554;28;20223;-50
2023/12/20 10:43:38;;;;;;;471.00;199.80;;;;;;;;;;5015602;28;20288;-49
2023/12/20 10:46:05;;;;;;;438.40;176.97;;;;;;;;;;5006059;28;20638;-49
2023/12/20 10:48:32;;;;;;;478.97;197.77;;;;;;;;;;5008993;28;20236;-49
2023/12/20 10:50:58;;;;;;;467.80;195.90;;;;;;;;;;5010244;28;20225;-49
2023/12/20 10:53:25;;;;;;;399.50;165.37;;;;;;;;;;5022533;28;20234;-49
2023/12/20 10:55:53;;;;;;;452.07;190.97;;;;;;;;;;5019405;28;20222;-49
2023/12/20 10:58:20;;;;;;;437.83;180.77;;;;;;;;;;5011547;28;23900;-49
2023/12/20 11:00:48;;;;;;;435.60;174.90;;;;;;;;;;5029823;28;20241;-50
2023/12/20 11:03:16;;;;;;;426.10;175.33;;;;;;;;;;5027282;28;20801;-49
2023/12/20 11:05:51;;;;;;;476.47;199.47;;;;;;;;;;5017584;28;21215;-50
2023/12/20 11:08:34;;;;;;;414.07;168.83;;;;;;;;;;5030604;28;20265;-50
2023/12/20 11:11:15;;;;;;;461.80;192.23;;;;;;;;;;5023618;28;20841;-50
2023/12/20 11:13:48;;;;;;;425.97;175.00;;;;;;;;;;5030297;28;20657;-50
2023/12/20 11:16:14;;;;;;;421.17;172.60;;;;;;;;;;5029720;28;20288;-50
2023/12/20 11:18:42;;;;;;;431.20;177.70;;;;;;;;;;5031256;28;20198;-50
2023/12/20 11:21:08;;;;;;;451.60;187.20;;;;;;;;;;5029601;28;21668;-50
2023/12/20 11:23:34;;;;;;;427.40;176.97;;;;;;;;;;5020042;28;20659;-50
2023/12/20 11:26:00;;;;;;;424.23;175.67;;;;;;;;;;5030017;28;20219;-50
2023/12/20 11:28:27;;;;;;;418.57;173.20;;;;;;;;;;5022355;28;20230;-50
2023/12/20 11:30:54;;;;;;;441.37;179.63;;;;;;;;;;5024265;28;20224;-50
2023/12/20 11:33:24;;;;;;;443.90;185.10;;;;;;;;;;5032634;28;20206;-50
2023/12/20 11:35:50;;;;;;;428.97;175.83;;;;;;;;;;5022371;28;20225;-50
2023/12/20 11:38:16;;;;;;;450.70;195.27;;;;;;;;;;5018417;28;20228;-50
2023/12/20 11:40:43;;;;;;;442.67;181.87;;;;;;;;;;5022927;28;20235;-50
2023/12/20 11:43:09;;;;;;;474.97;202.60;;;;;;;;;;5021440;28;20774;-50
2023/12/20 11:45:35;;;;;;;422.23;176.07;;;;;;;;;;5029284;28;20183;-51
2023/12/20 11:48:05;;;;;;;437.70;182.33;;;;;;;;;;5029031;28;20184;-50
2023/12/20 11:50:31;;;;;;;422.80;172.43;;;;;;;;;;5030711;28;20231;-50
2023/12/20 11:52:57;;;;;;;436.73;183.27;;;;;;;;;;5030315;28;20230;-50
2023/12/20 11:55:23;;;;;;;421.90;176.83;;;;;;;;;;5022599;28;20231;-50
2023/12/20 11:57:50;;;;;;;436.77;183.27;;;;;;;;;;5023850;28;20239;-50
2023/12/20 12:00:16;;;;;;;443.00;181.07;;;;;;;;;;5025968;28;20643;-50
2023/12/20 12:02:42;;;;;;;422.90;174.67;;;;;;;;;;5019919;28;20215;-50
2023/12/20 12:05:09;;;;;;;445.37;186.53;;;;;;;;;;5029424;28;20591;-50
2023/12/20 12:07:35;;;;;;;434.07;180.90;;;;;;;;;;5019707;28;20215;-50
2023/12/20 12:10:01;;;;;;;439.17;182.33;;;;;;;;;;5026294;28;20651;-50
2023/12/20 12:12:27;;;;;;;420.37;167.73;;;;;;;;;;5025531;28;20203;-50
2023/12/20 12:14:54;;;;;;;439.77;182.97;;;;;;;;;;5026536;28;20237;-50
2023/12/20 12:17:20;;;;;;;425.60;173.63;;;;;;;;;;5023128;28;20304;-50
2023/12/20 12:19:46;;;;;;;477.73;205.10;;;;;;;;;;5020092;28;20306;-51
2023/12/20 12:22:13;;;;;;;444.43;180.83;;;;;;;;;;5022347;28;20228;-50
2023/12/20 12:24:49;;;;;;;411.03;168.70;;;;;;;;;;5020977;28;20277;-50
2023/12/20 12:27:15;;;;;;;422.43;172.13;;;;;;;;;;5024286;28;20176;-50
2023/12/20 12:30:00;;;;;;;425.27;175.23;;;;;;;;;;5022111;28;20250;-50
2023/12/20 12:32:26;;;;;;;470.70;203.47;;;;;;;;;;5024395;28;20235;-50
2023/12/20 12:34:52;;;;;;;482.80;207.73;;;;;;;;;;5011455;28;20415;-51
2023/12/20 12:37:18;;;;;;;414.13;171.43;;;;;;;;;;5023362;28;20310;-50
2023/12/20 12:39:44;;;;;;;468.70;203.63;;;;;;;;;;5013089;28;20226;-50
2023/12/20 12:42:10;;;;;;;440.23;184.77;;;;;;;;;;5029144;28;20207;-51
2023/12/20 12:44:36;;;;;;;492.63;210.77;;;;;;;;;;5020285;28;20408;-50
2023/12/20 12:47:03;;;;;;;477.83;208.67;;;;;;;;;;5021350;28;20227;-50
2023/12/20 12:49:29;;;;;;;526.07;231.90;;;;;;;;;;5018880;28;20306;-50
2023/12/20 12:51:58;;;;;;;508.90;222.23;;;;;;;;;;5009412;28;20241;-50
2023/12/20 12:54:24;;;;;;;494.20;213.57;;;;;;;;;;5018767;28;20772;-49
2023/12/20 12:56:52;;;;;;;423.33;175.03;;;;;;;;;;5028632;28;20188;-50
2023/12/20 12:59:19;;;;;;;444.23;183.47;;;;;;;;;;5013919;28;20272;-50
2023/12/20 13:01:45;;;;;;;434.93;187.53;;;;;;;;;;5022147;28;20753;-50
2023/12/20 13:04:11;;;;;;;503.60;215.53;;;;;;;;;;5011910;28;20303;-51
2023/12/20 13:06:42;;;;;;;416.40;169.77;;;;;;;;;;5024164;28;20212;-50
2023/12/20 13:09:09;;;;;;;464.97;196.33;;;;;;;;;;5021516;28;20222;-50
2023/12/20 13:11:35;;;;;;;437.23;182.30;;;;;;;;;;5026924;28;20227;-50
2023/12/20 13:14:03;;;;;;;438.93;183.70;;;;;;;;;;5024873;28;20704;-50
2023/12/20 13:16:29;;;;;;;409.03;163.43;;;;;;;;;;5025861;28;20219;-50
2023/12/20 13:18:56;;;;;;;427.67;169.90;;;;;;;;;;5021596;28;20667;-50
2023/12/20 13:21:21;;;;;;;457.57;193.27;;;;;;;;;;5019737;28;20188;-50
2023/12/20 13:23:47;;;;;;;451.10;187.27;;;;;;;;;;5022959;28;22257;-50
2023/12/20 13:26:14;;;;;;;442.50;180.80;;;;;;;;;;5027416;28;20678;-50
2023/12/20 13:28:40;;;;;;;453.43;189.23;;;;;;;;;;5014587;28;20742;-50
2023/12/20 13:31:06;;;;;;;469.23;198.30;;;;;;;;;;5026410;28;20234;-50
2023/12/20 13:33:32;;;;;;;499.87;215.57;;;;;;;;;;5014221;28;20382;-50
2023/12/20 13:35:59;;;;;;;429.90;175.80;;;;;;;;;;5018873;28;20270;-50
2023/12/20 13:38:25;;;;;;;412.30;171.77;;;;;;;;;;5018822;28;20223;-50
2023/12/20 13:40:51;;;;;;;458.17;192.23;;;;;;;;;;5027015;28;20223;-51
2023/12/20 13:43:20;;;;;;;430.53;178.80;;;;;;;;;;5031055;28;20234;-50
2023/12/20 13:45:46;;;;;;;424.17;173.47;;;;;;;;;;5015869;28;20219;-50
2023/12/20 13:48:13;;;;;;;450.93;189.50;;;;;;;;;;5022519;28;20590;-50
2023/12/20 13:50:39;;;;;;;435.27;180.00;;;;;;;;;;5016941;28;20218;-50